Backoo, North Dakota
Current Conditions -  °F | °C
As of 12:15 AM on Wednesday 28 Jan 2015 (Local Time) from K2C8 Reporting Station
Haze Haze  
Wind Chill: 23°   Ceiling: 100
Heat Index: 32°   Visibility: 0.75mi
Dew Point: 32°   Wind: 12mph
Humidity: 100%   Direction: 170°S
Pressure: 29.88"   Gusts: NA
Location:  48.8218°N, 97.697°W
Report Text: K2C8 280615Z AUTO 17010KT 3/4SM BR OVC001 00/00 A2988 RMK AO2
Loading
Personal Weather Stations






























Interactive Weather Map New forecast layout! Learn more

10-Day Weather Forecast

Advertisements
Track Severe Weather on mobile